sensor_id;sensor_type;location;lat;lon;timestamp;pressure;altitude;pressure_sealevel;temperature;humidity
10604;BME280;5349;41.554;23.274;2023-02-04T00:02:02;99615.25;;;3.95;74.49
10604;BME280;5349;41.554;23.274;2023-02-04T00:04:29;99610.81;;;3.95;74.62
10604;BME280;5349;41.554;23.274;2023-02-04T00:06:56;99599.28;;;3.96;72.48
10604;BME280;5349;41.554;23.274;2023-02-04T00:09:22;99617.16;;;4.02;73.72
10604;BME280;5349;41.554;23.274;2023-02-04T00:11:49;99603.88;;;4.12;75.17
10604;BME280;5349;41.554;23.274;2023-02-04T00:14:16;99615.19;;;4.22;72.20
10604;BME280;5349;41.554;23.274;2023-02-04T00:16:44;99616.25;;;4.29;72.53
10604;BME280;5349;41.554;23.274;2023-02-04T00:19:11;99614.19;;;4.40;72.24
10604;BME280;5349;41.554;23.274;2023-02-04T00:21:38;99606.34;;;4.48;72.42
10604;BME280;5349;41.554;23.274;2023-02-04T00:24:05;99606.88;;;4.52;75.58
10604;BME280;5349;41.554;23.274;2023-02-04T00:26:32;99614.34;;;4.39;72.99
10604;BME280;5349;41.554;23.274;2023-02-04T00:28:58;99597.53;;;4.40;73.89
10604;BME280;5349;41.554;23.274;2023-02-04T00:31:25;99606.28;;;4.40;73.89
10604;BME280;5349;41.554;23.274;2023-02-04T00:33:53;99592.63;;;4.45;74.68
10604;BME280;5349;41.554;23.274;2023-02-04T00:36:20;99592.63;;;4.45;73.55
10604;BME280;5349;41.554;23.274;2023-02-04T00:38:47;99586.72;;;4.51;72.14
10604;BME280;5349;41.554;23.274;2023-02-04T00:41:14;99587.41;;;4.53;72.29
10604;BME280;5349;41.554;23.274;2023-02-04T00:43:40;99580.84;;;4.57;74.18
10604;BME280;5349;41.554;23.274;2023-02-04T00:46:07;99571.31;;;4.64;75.80
10604;BME280;5349;41.554;23.274;2023-02-04T00:48:34;99563.91;;;4.67;75.99
10604;BME280;5349;41.554;23.274;2023-02-04T00:51:03;99558.78;;;4.66;77.10
10604;BME280;5349;41.554;23.274;2023-02-04T00:53:29;99569.72;;;4.71;76.96
10604;BME280;5349;41.554;23.274;2023-02-04T00:55:56;99575.97;;;4.70;75.33
10604;BME280;5349;41.554;23.274;2023-02-04T00:58:23;99567.38;;;4.68;75.30
10604;BME280;5349;41.554;23.274;2023-02-04T01:00:50;99565.66;;;4.33;75.40
10604;BME280;5349;41.554;23.274;2023-02-04T01:03:18;99564.06;;;4.05;77.99
10604;BME280;5349;41.554;23.274;2023-02-04T01:05:45;99563.22;;;4.05;78.78
10604;BME280;5349;41.554;23.274;2023-02-04T01:08:13;99549.44;;;3.93;79.03
10604;BME280;5349;41.554;23.274;2023-02-04T01:10:40;99562.13;;;3.90;79.06
10604;BME280;5349;41.554;23.274;2023-02-04T01:13:07;99547.88;;;3.83;79.84
10604;BME280;5349;41.554;23.274;2023-02-04T01:15:34;99533.44;;;3.77;78.86
10604;BME280;5349;41.554;23.274;2023-02-04T01:18:01;99531.66;;;3.78;78.18
10604;BME280;5349;41.554;23.274;2023-02-04T01:20:28;99523.78;;;3.68;77.63
10604;BME280;5349;41.554;23.274;2023-02-04T01:22:55;99519.88;;;3.72;77.38
10604;BME280;5349;41.554;23.274;2023-02-04T01:25:23;99520.13;;;3.79;76.90
10604;BME280;5349;41.554;23.274;2023-02-04T01:27:50;99528.72;;;3.81;76.24
10604;BME280;5349;41.554;23.274;2023-02-04T01:30:17;99528.41;;;3.84;76.29
10604;BME280;5349;41.554;23.274;2023-02-04T01:32:43;99524.41;;;3.80;76.78
10604;BME280;5349;41.554;23.274;2023-02-04T01:35:10;99521.31;;;3.84;77.97
10604;BME280;5349;41.554;23.274;2023-02-04T01:37:37;99512.59;;;3.84;80.62
10604;BME280;5349;41.554;23.274;2023-02-04T01:40:05;99520.81;;;3.81;82.72
10604;BME280;5349;41.554;23.274;2023-02-04T01:42:33;99507.63;;;3.81;83.36
10604;BME280;5349;41.554;23.274;2023-02-04T01:45:01;99499.22;;;3.85;83.83
10604;BME280;5349;41.554;23.274;2023-02-04T01:47:30;99496.66;;;3.93;83.65
10604;BME280;5349;41.554;23.274;2023-02-04T01:49:57;99500.72;;;4.05;82.94
10604;BME280;5349;41.554;23.274;2023-02-04T01:52:24;99497.00;;;4.16;81.72
10604;BME280;5349;41.554;23.274;2023-02-04T01:54:52;99494.97;;;4.27;81.59
10604;BME280;5349;41.554;23.274;2023-02-04T01:57:19;99492.91;;;4.39;82.01
10604;BME280;5349;41.554;23.274;2023-02-04T01:59:48;99496.09;;;4.50;80.65
10604;BME280;5349;41.554;23.274;2023-02-04T02:02:41;99494.84;;;4.62;79.17
10604;BME280;5349;41.554;23.274;2023-02-04T02:05:10;99484.50;;;4.69;78.48
10604;BME280;5349;41.554;23.274;2023-02-04T02:07:38;99478.25;;;4.77;78.17
10604;BME280;5349;41.554;23.274;2023-02-04T02:10:06;99475.97;;;4.82;78.90
10604;BME280;5349;41.554;23.274;2023-02-04T02:12:33;99483.94;;;4.90;79.43
10604;BME280;5349;41.554;23.274;2023-02-04T02:15:02;99485.28;;;4.94;80.87
10604;BME280;5349;41.554;23.274;2023-02-04T02:17:29;99459.47;;;4.88;80.48
10604;BME280;5349;41.554;23.274;2023-02-04T02:19:57;99471.91;;;4.96;79.83
10604;BME280;5349;41.554;23.274;2023-02-04T02:22:27;99468.94;;;4.91;81.88
10604;BME280;5349;41.554;23.274;2023-02-04T02:24:56;99464.09;;;4.86;84.18
10604;BME280;5349;41.554;23.274;2023-02-04T02:27:23;99465.63;;;4.89;84.50
10604;BME280;5349;41.554;23.274;2023-02-04T02:29:50;99463.63;;;4.91;85.65
10604;BME280;5349;41.554;23.274;2023-02-04T02:32:18;99450.75;;;4.88;84.32
10604;BME280;5349;41.554;23.274;2023-02-04T02:34:45;99446.75;;;4.84;84.10
10604;BME280;5349;41.554;23.274;2023-02-04T02:37:12;99448.38;;;4.77;84.72
10604;BME280;5349;41.554;23.274;2023-02-04T02:39:41;99452.94;;;4.67;85.45
10604;BME280;5349;41.554;23.274;2023-02-04T02:42:13;99444.66;;;4.62;85.44
10604;BME280;5349;41.554;23.274;2023-02-04T02:44:41;99452.09;;;4.59;85.87
10604;BME280;5349;41.554;23.274;2023-02-04T02:47:11;99440.00;;;4.56;87.18
10604;BME280;5349;41.554;23.274;2023-02-04T02:49:39;99436.91;;;4.61;87.28
10604;BME280;5349;41.554;23.274;2023-02-04T02:52:10;99419.72;;;4.57;87.75
10604;BME280;5349;41.554;23.274;2023-02-04T02:54:38;99423.31;;;4.48;88.98
10604;BME280;5349;41.554;23.274;2023-02-04T02:57:12;99408.75;;;4.44;88.71
10604;BME280;5349;41.554;23.274;2023-02-04T02:59:39;99413.38;;;4.42;91.22
10604;BME280;5349;41.554;23.274;2023-02-04T03:02:08;99418.66;;;4.42;90.72
10604;BME280;5349;41.554;23.274;2023-02-04T03:04:39;99412.03;;;4.38;91.11
10604;BME280;5349;41.554;23.274;2023-02-04T03:07:07;99415.47;;;4.38;90.14
10604;BME280;5349;41.554;23.274;2023-02-04T03:09:35;99404.53;;;4.25;91.04
10604;BME280;5349;41.554;23.274;2023-02-04T03:12:02;99400.06;;;4.26;88.92
10604;BME280;5349;41.554;23.274;2023-02-04T03:14:32;99392.41;;;4.15;88.58
10604;BME280;5349;41.554;23.274;2023-02-04T03:16:59;99398.41;;;4.25;89.16
10604;BME280;5349;41.554;23.274;2023-02-04T03:19:28;99389.22;;;4.29;88.58
10604;BME280;5349;41.554;23.274;2023-02-04T03:21:55;99388.34;;;4.20;88.91
10604;BME280;5349;41.554;23.274;2023-02-04T03:24:23;99390.50;;;3.99;91.67
10604;BME280;5349;41.554;23.274;2023-02-04T03:26:50;99388.19;;;3.96;93.09
10604;BME280;5349;41.554;23.274;2023-02-04T03:29:17;99382.44;;;4.01;93.13
10604;BME280;5349;41.554;23.274;2023-02-04T03:31:46;99367.13;;;4.04;94.49
10604;BME280;5349;41.554;23.274;2023-02-04T03:34:12;99353.78;;;4.06;95.58
10604;BME280;5349;41.554;23.274;2023-02-04T03:36:39;99348.50;;;4.06;96.46
10604;BME280;5349;41.554;23.274;2023-02-04T03:39:06;99323.63;;;4.08;97.58
10604;BME280;5349;41.554;23.274;2023-02-04T03:41:33;99337.47;;;4.10;98.88
10604;BME280;5349;41.554;23.274;2023-02-04T03:44:00;99332.28;;;4.01;98.27
10604;BME280;5349;41.554;23.274;2023-02-04T03:46:27;99317.47;;;4.00;97.77
10604;BME280;5349;41.554;23.274;2023-02-04T03:48:55;99319.53;;;3.88;98.29
10604;BME280;5349;41.554;23.274;2023-02-04T03:51:22;99339.84;;;3.88;98.19
10604;BME280;5349;41.554;23.274;2023-02-04T03:53:49;99344.50;;;3.94;97.66
10604;BME280;5349;41.554;23.274;2023-02-04T03:56:16;99334.28;;;3.99;96.74
10604;BME280;5349;41.554;23.274;2023-02-04T03:58:42;99339.91;;;4.04;98.83
10604;BME280;5349;41.554;23.274;2023-02-04T04:01:09;99339.91;;;4.04;100.00
10604;BME280;5349;41.554;23.274;2023-02-04T04:03:36;99342.75;;;4.10;99.58
10604;BME280;5349;41.554;23.274;2023-02-04T04:06:04;99342.91;;;4.09;99.11
10604;BME280;5349;41.554;23.274;2023-02-04T04:08:34;99338.16;;;4.12;99.35
10604;BME280;5349;41.554;23.274;2023-02-04T04:11:01;99330.06;;;4.14;99.40
10604;BME280;5349;41.554;23.274;2023-02-04T04:13:28;99316.88;;;4.14;99.78
10604;BME280;5349;41.554;23.274;2023-02-04T04:15:54;99313.56;;;4.12;99.98
10604;BME280;5349;41.554;23.274;2023-02-04T04:18:21;99329.56;;;4.10;99.15
10604;BME280;5349;41.554;23.274;2023-02-04T04:20:48;99334.97;;;4.09;99.71
10604;BME280;5349;41.554;23.274;2023-02-04T04:23:16;99348.19;;;4.09;100.00
10604;BME280;5349;41.554;23.274;2023-02-04T04:25:43;99342.41;;;4.05;100.00
10604;BME280;5349;41.554;23.274;2023-02-04T04:28:10;99353.25;;;4.02;100.00
10604;BME280;5349;41.554;23.274;2023-02-04T04:30:37;99340.22;;;4.01;100.00
10604;BME280;5349;41.554;23.274;2023-02-04T04:33:04;99341.38;;;3.98;100.00
10604;BME280;5349;41.554;23.274;2023-02-04T04:35:30;99336.41;;;3.95;100.00
10604;BME280;5349;41.554;23.274;2023-02-04T04:37:59;99331.91;;;3.88;100.00
10604;BME280;5349;41.554;23.274;2023-02-04T04:40:27;99326.28;;;3.83;100.00
10604;BME280;5349;41.554;23.274;2023-02-04T04:42:54;99331.19;;;3.78;98.17
10604;BME280;5349;41.554;23.274;2023-02-04T04:45:21;99332.38;;;3.58;100.00
10604;BME280;5349;41.554;23.274;2023-02-04T04:47:48;99328.00;;;3.49;100.00
10604;BME280;5349;41.554;23.274;2023-02-04T04:50:15;99321.06;;;3.48;100.00
10604;BME280;5349;41.554;23.274;2023-02-04T04:52:42;99321.06;;;3.48;100.00
10604;BME280;5349;41.554;23.274;2023-02-04T04:55:09;99307.22;;;3.46;100.00
10604;BME280;5349;41.554;23.274;2023-02-04T04:57:37;99315.59;;;3.42;100.00
10604;BME280;5349;41.554;23.274;2023-02-04T05:00:06;99311.75;;;3.36;100.00
10604;BME280;5349;41.554;23.274;2023-02-04T05:02:33;99316.34;;;3.34;100.00
10604;BME280;5349;41.554;23.274;2023-02-04T05:04:59;99313.97;;;3.23;100.00
10604;BME280;5349;41.554;23.274;2023-02-04T05:07:26;99319.94;;;3.25;100.00
10604;BME280;5349;41.554;23.274;2023-02-04T05:09:53;99317.59;;;3.22;100.00
10604;BME280;5349;41.554;23.274;2023-02-04T05:12:20;99321.75;;;3.07;100.00
10604;BME280;5349;41.554;23.274;2023-02-04T05:14:48;99321.66;;;2.99;100.00
10604;BME280;5349;41.554;23.274;2023-02-04T05:17:15;99316.91;;;2.85;100.00
10604;BME280;5349;41.554;23.274;2023-02-04T05:19:41;99312.03;;;2.73;100.00
10604;BME280;5349;41.554;23.274;2023-02-04T05:22:08;99310.72;;;2.59;100.00
10604;BME280;5349;41.554;23.274;2023-02-04T05:24:35;99315.00;;;2.60;100.00
10604;BME280;5349;41.554;23.274;2023-02-04T05:27:02;99326.88;;;2.64;100.00
10604;BME280;5349;41.554;23.274;2023-02-04T05:29:29;99312.16;;;2.71;100.00
10604;BME280;5349;41.554;23.274;2023-02-04T05:31:57;99311.72;;;2.76;100.00
10604;BME280;5349;41.554;23.274;2023-02-04T05:34:24;99304.56;;;2.68;100.00
10604;BME280;5349;41.554;23.274;2023-02-04T05:36:51;99316.44;;;2.72;100.00
10604;BME280;5349;41.554;23.274;2023-02-04T05:39:17;99316.00;;;2.77;100.00
10604;BME280;5349;41.554;23.274;2023-02-04T05:41:44;99303.59;;;2.87;100.00
10604;BME280;5349;41.554;23.274;2023-02-04T05:44:11;99317.19;;;3.00;100.00
10604;BME280;5349;41.554;23.274;2023-02-04T05:46:38;99314.22;;;3.12;100.00
10604;BME280;5349;41.554;23.274;2023-02-04T05:49:06;99317.59;;;3.22;100.00
10604;BME280;5349;41.554;23.274;2023-02-04T05:51:33;99315.84;;;3.31;100.00
10604;BME280;5349;41.554;23.274;2023-02-04T05:54:00;99311.91;;;3.35;100.00
10604;BME280;5349;41.554;23.274;2023-02-04T05:56:27;99311.91;;;3.35;100.00
10604;BME280;5349;41.554;23.274;2023-02-04T05:58:54;99314.47;;;3.44;100.00
10604;BME280;5349;41.554;23.274;2023-02-04T06:01:22;99311.88;;;3.52;100.00
10604;BME280;5349;41.554;23.274;2023-02-04T06:03:49;99315.63;;;3.67;100.00
10604;BME280;5349;41.554;23.274;2023-02-04T06:06:17;99316.53;;;3.83;100.00
10604;BME280;5349;41.554;23.274;2023-02-04T06:08:44;99317.63;;;3.98;100.00
10604;BME280;5349;41.554;23.274;2023-02-04T06:11:11;99310.25;;;4.10;100.00
10604;BME280;5349;41.554;23.274;2023-02-04T06:13:37;99311.28;;;4.17;100.00
10604;BME280;5349;41.554;23.274;2023-02-04T06:16:05;99306.53;;;4.20;100.00
10604;BME280;5349;41.554;23.274;2023-02-04T06:18:32;99312.31;;;4.24;100.00
10604;BME280;5349;41.554;23.274;2023-02-04T06:20:58;99312.34;;;4.32;100.00
10604;BME280;5349;41.554;23.274;2023-02-04T06:23:30;99315.81;;;4.32;100.00
10604;BME280;5349;41.554;23.274;2023-02-04T06:25:58;99317.41;;;4.17;100.00
10604;BME280;5349;41.554;23.274;2023-02-04T06:28:25;99323.63;;;4.08;100.00
10604;BME280;5349;41.554;23.274;2023-02-04T06:30:52;99316.84;;;3.80;100.00
10604;BME280;5349;41.554;23.274;2023-02-04T06:33:19;99321.00;;;3.83;100.00
10604;BME280;5349;41.554;23.274;2023-02-04T06:35:48;99316.66;;;3.74;100.00
10604;BME280;5349;41.554;23.274;2023-02-04T06:38:15;99309.91;;;3.79;100.00
10604;BME280;5349;41.554;23.274;2023-02-04T06:40:44;99320.88;;;3.92;100.00
10604;BME280;5349;41.554;23.274;2023-02-04T06:43:13;99312.03;;;4.01;100.00
10604;BME280;5349;41.554;23.274;2023-02-04T06:45:40;99313.41;;;4.13;100.00
10604;BME280;5349;41.554;23.274;2023-02-04T06:48:07;99319.50;;;4.14;100.00
10604;BME280;5349;41.554;23.274;2023-02-04T06:50:34;99325.81;;;4.21;100.00
10604;BME280;5349;41.554;23.274;2023-02-04T06:53:01;99324.81;;;4.22;100.00
10604;BME280;5349;41.554;23.274;2023-02-04T06:55:28;99327.91;;;4.09;100.00
10604;BME280;5349;41.554;23.274;2023-02-04T06:57:56;99308.75;;;4.07;100.00
10604;BME280;5349;41.554;23.274;2023-02-04T07:00:23;99315.88;;;4.15;100.00
10604;BME280;5349;41.554;23.274;2023-02-04T07:02:50;99321.16;;;4.15;99.30
10604;BME280;5349;41.554;23.274;2023-02-04T07:05:17;99319.63;;;4.04;100.00
10604;BME280;5349;41.554;23.274;2023-02-04T07:07:44;99309.25;;;4.11;100.00
10604;BME280;5349;41.554;23.274;2023-02-04T07:10:11;99322.66;;;3.84;100.00
10604;BME280;5349;41.554;23.274;2023-02-04T07:12:37;99312.59;;;3.87;100.00
10604;BME280;5349;41.554;23.274;2023-02-04T07:15:06;99317.06;;;3.87;100.00
10604;BME280;5349;41.554;23.274;2023-02-04T07:17:33;99325.34;;;3.92;100.00
10604;BME280;5349;41.554;23.274;2023-02-04T07:20:00;99319.44;;;3.72;100.00
10604;BME280;5349;41.554;23.274;2023-02-04T07:22:27;99306.91;;;3.49;100.00
10604;BME280;5349;41.554;23.274;2023-02-04T07:24:54;99323.28;;;3.35;100.00
10604;BME280;5349;41.554;23.274;2023-02-04T07:27:20;99332.16;;;3.34;100.00
10604;BME280;5349;41.554;23.274;2023-02-04T07:29:47;99328.81;;;3.24;100.00
10604;BME280;5349;41.554;23.274;2023-02-04T07:32:16;99327.44;;;3.38;100.00
10604;BME280;5349;41.554;23.274;2023-02-04T07:34:42;99327.50;;;3.46;100.00
10604;BME280;5349;41.554;23.274;2023-02-04T07:37:09;99334.56;;;3.45;100.00
10604;BME280;5349;41.554;23.274;2023-02-04T07:39:36;99327.03;;;3.50;100.00
10604;BME280;5349;41.554;23.274;2023-02-04T07:42:03;99325.06;;;3.52;100.00
10604;BME280;5349;41.554;23.274;2023-02-04T07:44:30;99317.78;;;3.46;100.00
10604;BME280;5349;41.554;23.274;2023-02-04T07:46:57;99316.13;;;3.45;100.00
10604;BME280;5349;41.554;23.274;2023-02-04T07:49:26;99313.41;;;3.55;100.00
10604;BME280;5349;41.554;23.274;2023-02-04T07:51:53;99322.34;;;3.61;100.00
10604;BME280;5349;41.554;23.274;2023-02-04T07:54:20;99319.97;;;3.51;100.00
10604;BME280;5349;41.554;23.274;2023-02-04T07:56:47;99314.47;;;3.44;100.00
10604;BME280;5349;41.554;23.274;2023-02-04T07:59:14;99321.56;;;3.44;100.00
10604;BME280;5349;41.554;23.274;2023-02-04T08:01:40;99321.06;;;3.48;100.00
10604;BME280;5349;41.554;23.274;2023-02-04T08:04:07;99325.69;;;3.46;100.00
10604;BME280;5349;41.554;23.274;2023-02-04T08:06:36;99335.91;;;3.49;100.00
10604;BME280;5349;41.554;23.274;2023-02-04T08:09:03;99330.19;;;3.54;100.00
10604;BME280;5349;41.554;23.274;2023-02-04T08:11:30;99326.16;;;3.67;100.00
10604;BME280;5349;41.554;23.274;2023-02-04T08:13:56;99316.53;;;3.58;100.00
10604;BME280;5349;41.554;23.274;2023-02-04T08:16:23;99312.81;;;3.68;100.00
10604;BME280;5349;41.554;23.274;2023-02-04T08:18:50;99306.31;;;3.80;100.00
10604;BME280;5349;41.554;23.274;2023-02-04T08:21:17;99314.63;;;3.93;100.00
10604;BME280;5349;41.554;23.274;2023-02-04T08:23:45;99307.59;;;4.10;100.00
10604;BME280;5349;41.554;23.274;2023-02-04T08:26:12;99308.03;;;4.31;100.00
10604;BME280;5349;41.554;23.274;2023-02-04T08:28:39;99303.66;;;4.55;100.00
10604;BME280;5349;41.554;23.274;2023-02-04T08:31:05;99302.25;;;4.69;100.00
10604;BME280;5349;41.554;23.274;2023-02-04T08:33:36;99303.91;;;4.70;100.00
10604;BME280;5349;41.554;23.274;2023-02-04T08:36:03;99309.50;;;4.74;100.00
10604;BME280;5349;41.554;23.274;2023-02-04T08:38:30;99312.34;;;4.89;100.00
10604;BME280;5349;41.554;23.274;2023-02-04T08:40:58;99302.28;;;5.08;100.00
10604;BME280;5349;41.554;23.274;2023-02-04T08:43:25;99293.06;;;5.28;100.00
10604;BME280;5349;41.554;23.274;2023-02-04T08:45:52;99298.00;;;5.47;100.00
10604;BME280;5349;41.554;23.274;2023-02-04T08:48:19;99287.06;;;5.66;100.00
10604;BME280;5349;41.554;23.274;2023-02-04T08:50:46;99289.03;;;5.88;100.00
10604;BME280;5349;41.554;23.274;2023-02-04T08:53:12;99284.19;;;6.07;100.00
10604;BME280;5349;41.554;23.274;2023-02-04T08:55:39;99280.78;;;6.29;100.00
10604;BME280;5349;41.554;23.274;2023-02-04T08:58:07;99287.78;;;6.53;100.00
10604;BME280;5349;41.554;23.274;2023-02-04T09:00:34;99284.91;;;6.62;100.00
10604;BME280;5349;41.554;23.274;2023-02-04T09:03:01;99275.94;;;6.71;100.00
10604;BME280;5349;41.554;23.274;2023-02-04T09:05:28;99279.97;;;6.90;100.00
10604;BME280;5349;41.554;23.274;2023-02-04T09:07:55;99281.50;;;7.07;100.00
10604;BME280;5349;41.554;23.274;2023-02-04T09:10:22;99269.75;;;7.23;100.00
10604;BME280;5349;41.554;23.274;2023-02-04T09:12:48;99271.81;;;7.36;100.00
10604;BME280;5349;41.554;23.274;2023-02-04T09:15:22;99268.56;;;7.48;100.00
10604;BME280;5349;41.554;23.274;2023-02-04T09:17:49;99259.53;;;7.57;100.00
10604;BME280;5349;41.554;23.274;2023-02-04T09:20:18;99269.03;;;7.66;100.00
10604;BME280;5349;41.554;23.274;2023-02-04T09:22:45;99269.50;;;7.70;100.00
10604;BME280;5349;41.554;23.274;2023-02-04T09:25:12;99266.13;;;7.76;100.00
10604;BME280;5349;41.554;23.274;2023-02-04T09:27:39;99263.94;;;7.79;100.00
10604;BME280;5349;41.554;23.274;2023-02-04T09:30:08;99260.91;;;7.82;100.00
10604;BME280;5349;41.554;23.274;2023-02-04T09:32:36;99263.34;;;7.69;100.00
10604;BME280;5349;41.554;23.274;2023-02-04T09:35:04;99258.09;;;7.32;100.00
10604;BME280;5349;41.554;23.274;2023-02-04T09:37:31;99248.84;;;7.28;100.00
10604;BME280;5349;41.554;23.274;2023-02-04T09:39:57;99241.22;;;7.25;100.00
10604;BME280;5349;41.554;23.274;2023-02-04T09:42:25;99225.69;;;7.22;100.00
10604;BME280;5349;41.554;23.274;2023-02-04T09:44:52;99231.13;;;7.43;100.00
10604;BME280;5349;41.554;23.274;2023-02-04T09:47:21;99235.44;;;7.59;100.00
10604;BME280;5349;41.554;23.274;2023-02-04T09:49:50;99230.13;;;7.73;100.00
10604;BME280;5349;41.554;23.274;2023-02-04T09:52:18;99225.03;;;7.57;100.00
10604;BME280;5349;41.554;23.274;2023-02-04T09:54:48;99230.78;;;7.61;100.00
10604;BME280;5349;41.554;23.274;2023-02-04T09:57:17;99220.44;;;7.66;100.00
10604;BME280;5349;41.554;23.274;2023-02-04T09:59:45;99220.00;;;7.62;100.00
10604;BME280;5349;41.554;23.274;2023-02-04T10:02:20;99208.72;;;7.75;100.00
10604;BME280;5349;41.554;23.274;2023-02-04T10:04:49;99205.91;;;7.91;100.00
10604;BME280;5349;41.554;23.274;2023-02-04T10:07:20;99199.19;;;7.80;100.00
10604;BME280;5349;41.554;23.274;2023-02-04T10:09:49;99186.47;;;7.90;100.00
10604;BME280;5349;41.554;23.274;2023-02-04T10:12:17;99180.66;;;8.16;100.00
10604;BME280;5349;41.554;23.274;2023-02-04T10:14:45;99175.84;;;8.54;100.00
10604;BME280;5349;41.554;23.274;2023-02-04T10:17:16;99179.06;;;8.92;100.00
10604;BME280;5349;41.554;23.274;2023-02-04T10:19:45;99175.47;;;9.27;96.70
10604;BME280;5349;41.554;23.274;2023-02-04T10:22:17;99164.47;;;9.63;97.23
10604;BME280;5349;41.554;23.274;2023-02-04T10:24:45;99157.28;;;9.98;93.67
10604;BME280;5349;41.554;23.274;2023-02-04T10:27:12;99146.16;;;9.81;92.29
10604;BME280;5349;41.554;23.274;2023-02-04T10:29:42;99147.84;;;9.95;92.69
10604;BME280;5349;41.554;23.274;2023-02-04T10:32:28;99144.69;;;10.19;88.87
10604;BME280;5349;41.554;23.274;2023-02-04T10:34:56;99148.03;;;10.34;87.18
10604;BME280;5349;41.554;23.274;2023-02-04T10:37:25;99133.25;;;10.32;84.89
10604;BME280;5349;41.554;23.274;2023-02-04T10:39:52;99131.25;;;10.47;86.84
10604;BME280;5349;41.554;23.274;2023-02-04T10:42:21;99090.22;;;10.41;86.91
10604;BME280;5349;41.554;23.274;2023-02-04T10:44:49;99119.16;;;10.70;84.60
10604;BME280;5349;41.554;23.274;2023-02-04T10:47:18;99115.47;;;10.65;85.55
10604;BME280;5349;41.554;23.274;2023-02-04T10:49:52;99114.22;;;10.67;86.12
10604;BME280;5349;41.554;23.274;2023-02-04T10:52:21;99109.75;;;10.68;84.80
10604;BME280;5349;41.554;23.274;2023-02-04T10:54:51;99112.19;;;10.69;84.14
10604;BME280;5349;41.554;23.274;2023-02-04T10:57:20;99106.44;;;10.59;84.52
10604;BME280;5349;41.554;23.274;2023-02-04T10:59:49;99100.28;;;10.59;84.85
10604;BME280;5349;41.554;23.274;2023-02-04T11:02:36;99086.97;;;10.52;83.73
10604;BME280;5349;41.554;23.274;2023-02-04T11:05:10;99079.16;;;10.51;82.40
10604;BME280;5349;41.554;23.274;2023-02-04T11:07:37;99081.81;;;10.44;83.50
10604;BME280;5349;41.554;23.274;2023-02-04T11:10:11;99076.28;;;10.52;83.24
10604;BME280;5349;41.554;23.274;2023-02-04T11:12:40;99079.94;;;10.25;79.80
10604;BME280;5349;41.554;23.274;2023-02-04T11:15:41;99070.13;;;10.45;82.87
10604;BME280;5349;41.554;23.274;2023-02-04T11:18:11;99058.63;;;10.64;83.22
10604;BME280;5349;41.554;23.274;2023-02-04T11:20:39;99040.59;;;10.79;81.48
10604;BME280;5349;41.554;23.274;2023-02-04T11:23:28;99045.91;;;10.92;80.60
10604;BME280;5349;41.554;23.274;2023-02-04T11:26:14;99034.66;;;10.84;76.30
10604;BME280;5349;41.554;23.274;2023-02-04T11:28:47;99027.44;;;10.84;78.68
10604;BME280;5349;41.554;23.274;2023-02-04T11:31:26;99029.28;;;10.96;79.03
10604;BME280;5349;41.554;23.274;2023-02-04T11:34:09;99024.56;;;11.05;77.62
10604;BME280;5349;41.554;23.274;2023-02-04T11:36:50;99014.06;;;11.16;76.62
10604;BME280;5349;41.554;23.274;2023-02-04T11:39:20;99020.78;;;11.32;75.52
10604;BME280;5349;41.554;23.274;2023-02-04T11:41:48;99012.81;;;11.25;73.82
10604;BME280;5349;41.554;23.274;2023-02-04T11:44:16;99009.81;;;10.89;66.13
10604;BME280;5349;41.554;23.274;2023-02-04T11:46:49;99006.13;;;10.32;66.58
10604;BME280;5349;41.554;23.274;2023-02-04T11:49:19;99003.66;;;10.37;67.92
10604;BME280;5349;41.554;23.274;2023-02-04T11:51:47;99000.19;;;10.30;66.91
10604;BME280;5349;41.554;23.274;2023-02-04T11:54:14;98998.94;;;10.33;67.02
10604;BME280;5349;41.554;23.274;2023-02-04T11:56:43;98988.09;;;10.34;67.23
10604;BME280;5349;41.554;23.274;2023-02-04T11:59:13;98989.28;;;10.12;68.33
10604;BME280;5349;41.554;23.274;2023-02-04T12:01:42;98995.41;;;10.06;67.15
10604;BME280;5349;41.554;23.274;2023-02-04T12:04:21;98961.34;;;9.82;68.12
10604;BME280;5349;41.554;23.274;2023-02-04T12:06:57;98975.25;;;9.71;67.10
10604;BME280;5349;41.554;23.274;2023-02-04T12:09:25;98940.94;;;9.43;68.94
10604;BME280;5349;41.554;23.274;2023-02-04T12:11:56;98976.50;;;9.88;67.91
10604;BME280;5349;41.554;23.274;2023-02-04T12:14:30;98977.16;;;9.97;65.71
10604;BME280;5349;41.554;23.274;2023-02-04T12:16:57;98973.03;;;9.94;64.79
10604;BME280;5349;41.554;23.274;2023-02-04T12:19:24;98972.06;;;10.08;64.20
10604;BME280;5349;41.554;23.274;2023-02-04T12:21:51;98969.19;;;10.03;64.61
10604;BME280;5349;41.554;23.274;2023-02-04T12:24:19;98963.47;;;10.19;65.44
10604;BME280;5349;41.554;23.274;2023-02-04T12:26:46;98958.97;;;10.07;66.39
10604;BME280;5349;41.554;23.274;2023-02-04T12:29:13;98947.88;;;10.23;64.78
10604;BME280;5349;41.554;23.274;2023-02-04T12:31:41;98943.56;;;10.22;64.22
10604;BME280;5349;41.554;23.274;2023-02-04T12:34:08;98952.38;;;10.29;64.47
10604;BME280;5349;41.554;23.274;2023-02-04T12:36:34;98940.91;;;10.41;63.98
10604;BME280;5349;41.554;23.274;2023-02-04T12:39:01;98921.59;;;10.65;64.46
10604;BME280;5349;41.554;23.274;2023-02-04T12:41:28;98927.31;;;10.75;61.85
10604;BME280;5349;41.554;23.274;2023-02-04T12:43:55;98921.63;;;10.59;60.69
10604;BME280;5349;41.554;23.274;2023-02-04T12:46:23;98923.66;;;10.57;61.17
10604;BME280;5349;41.554;23.274;2023-02-04T12:48:51;98929.00;;;10.44;61.61
10604;BME280;5349;41.554;23.274;2023-02-04T12:51:18;98929.00;;;10.44;61.32
10604;BME280;5349;41.554;23.274;2023-02-04T12:53:45;98930.25;;;10.28;62.25
10604;BME280;5349;41.554;23.274;2023-02-04T12:56:12;98927.16;;;10.05;63.53
10604;BME280;5349;41.554;23.274;2023-02-04T12:58:39;98925.69;;;9.96;64.92
10604;BME280;5349;41.554;23.274;2023-02-04T13:01:06;98921.22;;;10.16;65.33
10604;BME280;5349;41.554;23.274;2023-02-04T13:03:33;98928.22;;;10.17;63.16
10604;BME280;5349;41.554;23.274;2023-02-04T13:06:02;98925.34;;;10.06;62.76
10604;BME280;5349;41.554;23.274;2023-02-04T13:08:29;98920.84;;;10.13;61.97
10604;BME280;5349;41.554;23.274;2023-02-04T13:10:55;98920.41;;;10.09;62.35